TFM - Tactical Decision Aid
ID: Runway Winds: CIG/VIS Threshold:

KMIA - Miami Intl, FL, US

Updated at: 0850 UTC 25 Apr 2019
Latest TAF at: 0526 UTC 25 Apr 2019

TAF Board

Time0753Z 25/09Z 25/10Z 25/11Z 25/12Z 25/13Z 25/14Z 25/15Z 25/16Z 25/17Z 25/18Z 25/19Z 25/20Z 25/21Z>>
Type OBS PRVL PRVL PRVL PRVL PRVL PRVL PRVL PRVL PRVL PRVL PRVL PRVL PRVL
VIS 10 >6 >6 >6 >6 >6 >6 >6 >6 >6 >6 >6 >6 >6
CIG 250 -- -- -- -- -- -- -- -- -- -- -- -- --
Cover BKN FEW FEW FEW FEW FEW SCT SCT SCT SCT SCT SCT SCT SCT
FltCat VFR VFR VFR VFR VFR VFR VFR VFR VFR VFR VFR VFR VFR VFR
WX -- -- -- -- -- -- -- -- -- -- -- -- -- --
WDir VRB VRB VRB VRB VRB VRB 150 150 150 150 150 150 150 150
WSpd 0 5 5 5 5 5 10 10 10 10 10 10 10 10
WGst -- -- -- -- -- -- -- -- -- -- -- -- -- --

TDA Impact Legend

  None Marginal Slight Moderate High
Visibility (sm) >5 3≤X≤5 1≤X<3 0.5≤X<1 <0.5
Ceiling (100 ft) >30 10≤X≤30 4≤X<10 2≤X<4 <2
Wind Speed (kt) <15 15≤X<25 25≤X<30 ≥30
Wind Gust (kt) <15 15≤X<25 25≤X<35 ≥35
Weather No Wx Reported VCTS -TS,-FZRA TS,FZRA +TS,+FZRA
TAF
KMIA 250526Z 2506/2612 VRB05KT P6SM FEW040
  FM251400 15010KT P6SM SCT040
  FM260100 VRB05KT P6SM SCT035


METAR
KMIA 250753Z 00000KT 10SM FEW025 BKN250 22/19 A2996 RMK AO2 SLP145 T02220189
KMIA 250653Z 00000KT 10SM FEW025 BKN250 22/18 A2997 RMK AO2 SLP149 T02220183
KMIA 250553Z 11004KT 10SM FEW026 BKN250 22/18 A2999 RMK AO2 SLP154 T02220183 10239 20217 58012

Radar Display
Forecast Discussion